createdAt,value
2019-05-29T00:00:14.825Z,10.50
2019-05-29T00:02:55.668Z,10.50
2019-05-29T00:05:36.926Z,10.50
2019-05-29T00:08:18.555Z,10.50
2019-05-29T00:11:00.295Z,10.40
2019-05-29T00:13:42.142Z,10.20
2019-05-29T00:16:22.051Z,10.20
2019-05-29T00:19:02.302Z,10.30
2019-05-29T00:21:42.606Z,10.30
2019-05-29T00:24:23.204Z,10.40
2019-05-29T00:27:03.639Z,10.20
2019-05-29T00:29:44.335Z,10.20
2019-05-29T00:32:25.282Z,10.00
2019-05-29T00:35:08.075Z,10.10
2019-05-29T00:37:48.613Z,9.90
2019-05-29T00:40:29.595Z,9.90
2019-05-29T00:43:15.456Z,9.90
2019-05-29T00:45:56.912Z,9.80
2019-05-29T00:48:37.166Z,9.80
2019-05-29T00:51:17.206Z,9.70
2019-05-29T00:53:56.751Z,9.70
2019-05-29T00:56:36.954Z,9.70
2019-05-29T00:59:17.416Z,9.80
2019-05-29T01:01:58.817Z,9.80
2019-05-29T01:04:40.005Z,9.80
2019-05-29T01:07:21.110Z,9.80
2019-05-29T01:10:02.148Z,9.70
2019-05-29T01:12:43.190Z,9.70
2019-05-29T01:15:24.352Z,9.90
2019-05-29T01:18:05.656Z,9.70
2019-05-29T01:20:45.574Z,9.80
2019-05-29T01:23:25.694Z,9.70
2019-05-29T01:26:05.956Z,9.70
2019-05-29T01:28:46.396Z,9.60
2019-05-29T01:31:26.568Z,9.60
2019-05-29T01:34:07.580Z,9.60
2019-05-29T01:36:48.693Z,9.50
2019-05-29T01:39:29.995Z,9.50
2019-05-29T01:42:11.277Z,9.40
2019-05-29T01:44:39.262Z,9.50
2019-05-29T01:47:28.093Z,9.50
2019-05-29T01:50:10.039Z,9.40
2019-05-29T01:52:51.311Z,9.40
2019-05-29T01:55:31.150Z,9.40
2019-05-29T01:58:11.114Z,9.30
2019-05-29T02:00:51.307Z,9.30
2019-05-29T02:03:31.421Z,9.40
2019-05-29T02:06:11.728Z,9.40
2019-05-29T02:08:52.681Z,9.40
2019-05-29T02:11:34.092Z,9.40
2019-05-29T02:14:14.851Z,9.20
2019-05-29T02:16:56.082Z,9.20
2019-05-29T02:19:37.319Z,9.30
2019-05-29T02:22:18.931Z,9.20
2019-05-29T02:25:00.433Z,9.10
2019-05-29T02:27:44.737Z,8.90
2019-05-29T02:30:27.775Z,9.00
2019-05-29T02:33:06.963Z,9.00
2019-05-29T02:35:34.406Z,9.00
2019-05-29T02:38:22.990Z,9.00
2019-05-29T02:41:09.871Z,8.90
2019-05-29T02:43:51.260Z,8.80
2019-05-29T02:46:32.230Z,8.80
2019-05-29T02:49:13.705Z,8.80
2019-05-29T02:51:54.743Z,8.60
2019-05-29T02:54:35.968Z,8.80
2019-05-29T02:57:16.198Z,8.70
2019-05-29T02:59:55.924Z,8.80
2019-05-29T03:02:36.270Z,8.90
2019-05-29T03:05:16.182Z,8.70
2019-05-29T03:07:56.551Z,8.60
2019-05-29T03:10:37.125Z,8.70
2019-05-29T03:13:18.412Z,8.60
2019-05-29T03:16:10.595Z,8.60
2019-05-29T03:18:42.934Z,8.60
2019-05-29T03:21:25.936Z,8.60
2019-05-29T03:24:07.251Z,8.70
2019-05-29T03:26:48.576Z,8.60
2019-05-29T03:29:29.968Z,8.70
2019-05-29T03:31:57.761Z,8.70
2019-05-29T03:34:46.739Z,8.60
2019-05-29T03:37:34.295Z,8.60
2019-05-29T03:40:14.683Z,8.60
2019-05-29T03:42:54.836Z,8.50
2019-05-29T03:45:37.760Z,8.50
2019-05-29T03:48:19.185Z,8.50
2019-05-29T03:51:00.502Z,8.40
2019-05-29T03:53:41.693Z,8.40
2019-05-29T03:56:22.771Z,8.50
2019-05-29T03:59:03.843Z,8.50
2019-05-29T04:01:44.183Z,8.40
2019-05-29T04:04:24.198Z,8.50
2019-05-29T04:07:04.424Z,8.70
2019-05-29T04:09:44.715Z,8.60
2019-05-29T04:12:24.846Z,8.70
2019-05-29T04:15:05.354Z,8.70
2019-05-29T04:17:46.244Z,8.90
2019-05-29T04:20:27.603Z,9.00
2019-05-29T04:23:08.303Z,9.10
2019-05-29T04:25:49.258Z,9.20
2019-05-29T04:28:58.350Z,9.30
2019-05-29T04:31:25.509Z,9.40
2019-05-29T04:34:06.515Z,9.60
2019-05-29T04:36:46.583Z,9.70
2019-05-29T04:39:28.250Z,9.70
2019-05-29T04:42:07.894Z,9.90
2019-05-29T04:44:48.064Z,9.90
2019-05-29T04:47:30.734Z,9.90
2019-05-29T04:50:12.441Z,9.90
2019-05-29T04:52:53.912Z,9.90
2019-05-29T04:55:34.904Z,10.10
2019-05-29T04:58:15.705Z,10.40
2019-05-29T05:00:58.152Z,11.30
2019-05-29T05:03:39.425Z,13.00
2019-05-29T05:06:27.339Z,14.40
2019-05-29T05:09:07.423Z,15.80
2019-05-29T05:11:35.483Z,16.80
2019-05-29T05:14:22.234Z,17.50
2019-05-29T05:17:02.584Z,18.20
2019-05-29T05:19:43.930Z,19.30
2019-05-29T05:22:24.703Z,20.10
2019-05-29T05:25:06.140Z,20.40
2019-05-29T05:27:47.055Z,20.90
2019-05-29T05:30:28.200Z,21.40
2019-05-29T05:33:09.141Z,23.20
2019-05-29T05:35:50.475Z,24.30
2019-05-29T05:38:30.603Z,24.10
2019-05-29T05:41:10.342Z,23.70
2019-05-29T05:43:50.263Z,23.20
2019-05-29T05:46:30.956Z,24.00
2019-05-29T05:49:11.504Z,24.40
2019-05-29T05:51:42.698Z,23.90
2019-05-29T05:54:27.482Z,24.60
2019-05-29T05:57:08.541Z,25.40
2019-05-29T05:59:49.450Z,25.90
2019-05-29T06:02:31.654Z,25.70
2019-05-29T06:05:12.738Z,25.60
2019-05-29T06:07:53.918Z,24.90
2019-05-29T06:10:34.718Z,24.80
2019-05-29T06:13:15.186Z,24.10
2019-05-29T06:15:54.915Z,23.80
2019-05-29T06:18:36.436Z,24.30
2019-05-29T06:21:16.385Z,25.70
2019-05-29T06:23:56.875Z,26.00
2019-05-29T06:26:37.599Z,25.70
2019-05-29T06:29:19.052Z,25.40
2019-05-29T06:35:01.486Z,24.10
2019-05-29T06:37:43.636Z,24.30
2019-05-29T06:40:26.587Z,23.80
2019-05-29T06:43:06.556Z,23.20
2019-05-29T06:45:46.943Z,23.20
2019-05-29T06:54:37.837Z,23.20
2019-05-29T06:57:17.827Z,23.50
2019-05-29T06:59:58.593Z,23.20
2019-05-29T07:05:21.899Z,21.90
2019-05-29T07:08:18.181Z,21.40
2019-05-29T07:10:45.797Z,19.90
2019-05-29T07:13:13.826Z,19.60
2019-05-29T07:16:02.347Z,18.60
2019-05-29T07:19:18.349Z,17.60
2019-05-29T07:21:24.477Z,16.70
2019-05-29T07:24:04.613Z,15.90
2019-05-29T07:26:45.446Z,15.30
2019-05-29T07:29:25.010Z,15.10
2019-05-29T07:32:06.343Z,14.50
2019-05-29T07:35:02.299Z,14.20
2019-05-29T07:37:30.483Z,14.10
2019-05-29T07:40:11.728Z,13.80
2019-05-29T07:42:56.260Z,14.00
2019-05-29T07:45:35.949Z,14.30
2019-05-29T07:48:16.115Z,14.40
2019-05-29T07:51:06.670Z,14.10
2019-05-29T07:53:40.174Z,14.10
2019-05-29T07:56:22.956Z,14.10
2019-05-29T07:59:03.727Z,14.00
2019-05-29T08:01:45.510Z,13.90
2019-05-29T08:04:27.724Z,13.70
2019-05-29T08:07:09.130Z,13.80
2019-05-29T08:09:50.243Z,14.00
2019-05-29T08:12:31.534Z,14.30
2019-05-29T08:15:12.510Z,14.50
2019-05-29T08:17:53.358Z,14.60
2019-05-29T08:20:33.479Z,14.60
2019-05-29T08:23:13.626Z,14.70
2019-05-29T08:25:53.601Z,14.50
2019-05-29T08:28:33.436Z,14.50
2019-05-29T08:31:13.769Z,14.60
2019-05-29T08:33:54.751Z,14.50
2019-05-29T08:36:36.006Z,14.80
2019-05-29T08:39:33.510Z,14.80
2019-05-29T08:42:21.166Z,15.10
2019-05-29T08:44:43.425Z,14.80
2019-05-29T08:47:24.231Z,14.70
2019-05-29T08:50:20.800Z,14.80
2019-05-29T08:52:48.076Z,14.80
2019-05-29T08:55:32.666Z,14.70
2019-05-29T08:58:12.834Z,14.80
2019-05-29T09:00:55.260Z,14.90
2019-05-29T09:03:35.640Z,14.90
2019-05-29T09:06:16.918Z,14.60
2019-05-29T09:08:57.598Z,14.60
2019-05-29T09:11:36.674Z,14.60
2019-05-29T09:14:24.622Z,14.80
2019-05-29T09:17:06.880Z,15.00
2019-05-29T09:19:48.346Z,14.80
2019-05-29T09:22:28.602Z,14.80
2019-05-29T09:25:08.854Z,14.60
2019-05-29T09:27:36.009Z,14.50
2019-05-29T09:30:23.595Z,14.80
2019-05-29T09:33:25.202Z,14.70
2019-05-29T09:36:06.279Z,15.10
2019-05-29T09:38:47.090Z,15.40
2019-05-29T09:41:28.066Z,15.70
2019-05-29T09:44:09.243Z,15.60
2019-05-29T09:46:50.463Z,15.60
2019-05-29T09:49:31.560Z,15.70
2019-05-29T09:52:13.410Z,15.90
2019-05-29T09:54:40.869Z,15.70
2019-05-29T09:57:27.918Z,15.50
2019-05-29T10:00:08.333Z,15.80
2019-05-29T10:02:48.074Z,16.00
2019-05-29T10:05:28.218Z,16.20
2019-05-29T10:08:08.371Z,16.10
2019-05-29T10:10:49.296Z,16.00
2019-05-29T10:13:30.378Z,16.00
2019-05-29T10:16:11.761Z,15.90
2019-05-29T10:18:52.830Z,15.90
2019-05-29T10:21:40.808Z,16.60
2019-05-29T10:24:15.661Z,17.00
2019-05-29T10:27:15.174Z,17.10
2019-05-29T10:29:55.179Z,17.20
2019-05-29T10:32:35.256Z,17.40
2019-05-29T10:35:14.866Z,18.20
2019-05-29T10:37:55.155Z,18.80
2019-05-29T10:40:34.767Z,19.00
2019-05-29T10:43:30.971Z,19.10
2019-05-29T10:45:58.796Z,19.30
2019-05-29T10:48:39.824Z,18.80
2019-05-29T10:51:21.306Z,19.70
2019-05-29T10:54:02.434Z,19.90
2019-05-29T10:56:44.667Z,20.30
2019-05-29T10:59:26.161Z,19.90
2019-05-29T11:01:53.931Z,20.20
2019-05-29T11:04:53.017Z,20.30
2019-05-29T11:07:24.316Z,20.00
2019-05-29T11:10:13.624Z,19.80
2019-05-29T11:13:12.856Z,20.10
2019-05-29T11:15:54.801Z,20.10
2019-05-29T11:18:36.306Z,20.00
2019-05-29T11:21:17.636Z,20.00
2019-05-29T11:23:58.530Z,19.90
2019-05-29T11:26:38.510Z,19.90
2019-05-29T11:29:18.499Z,19.70
2019-05-29T11:31:58.957Z,19.40
2019-05-29T11:34:38.978Z,19.10
2019-05-29T11:37:18.787Z,19.10
2019-05-29T11:40:03.463Z,19.10
2019-05-29T11:42:44.211Z,19.10
2019-05-29T11:48:13.868Z,19.20
2019-05-29T11:51:02.841Z,19.00
2019-05-29T11:53:44.472Z,19.10
2019-05-29T11:56:24.286Z,19.20
2019-05-29T11:59:04.483Z,19.80
2019-05-29T12:01:50.319Z,19.50
2019-05-29T12:04:27.142Z,19.60
2019-05-29T12:07:07.056Z,19.70
2019-05-29T12:09:47.009Z,19.90
2019-05-29T12:12:28.422Z,20.00
2019-05-29T12:15:14.448Z,19.70
2019-05-29T12:17:40.587Z,19.60
2019-05-29T12:20:29.271Z,19.80
2019-05-29T12:23:30.741Z,19.70
2019-05-29T12:26:21.448Z,19.70
2019-05-29T12:28:53.953Z,19.50
2019-05-29T12:31:35.283Z,19.50
2019-05-29T12:34:19.066Z,19.60
2019-05-29T12:36:57.530Z,20.00
2019-05-29T12:39:38.641Z,19.60
2019-05-29T12:42:19.851Z,19.90
2019-05-29T12:44:48.244Z,19.90
2019-05-29T12:47:36.817Z,19.90
2019-05-29T12:50:19.011Z,20.00
2019-05-29T12:53:01.764Z,20.00
2019-05-29T12:55:43.052Z,20.00
2019-05-29T12:58:23.414Z,20.20
2019-05-29T13:01:04.968Z,20.30
2019-05-29T13:03:46.080Z,20.40
2019-05-29T13:06:26.392Z,20.70
2019-05-29T13:09:06.525Z,20.90
2019-05-29T13:11:47.855Z,21.10
2019-05-29T13:14:28.594Z,20.80
2019-05-29T13:17:09.533Z,20.90
2019-05-29T13:19:50.614Z,20.80
2019-05-29T13:22:31.660Z,20.40
2019-05-29T13:25:12.671Z,20.40
2019-05-29T13:27:53.734Z,20.80
2019-05-29T13:30:34.951Z,20.60
2019-05-29T13:33:15.018Z,20.50
2019-05-29T13:35:42.119Z,20.50
2019-05-29T13:38:28.901Z,20.50
2019-05-29T13:41:09.258Z,20.80
2019-05-29T13:43:49.298Z,20.60
2019-05-29T13:46:30.245Z,20.60
2019-05-29T13:49:11.238Z,20.00
2019-05-29T13:51:52.366Z,20.00
2019-05-29T13:54:33.334Z,20.10
2019-05-29T13:57:14.515Z,20.00
2019-05-29T13:59:55.362Z,20.00
2019-05-29T14:02:36.348Z,19.90
2019-05-29T14:05:17.502Z,20.00
2019-05-29T14:07:58.548Z,20.10
2019-05-29T14:10:25.749Z,20.20
2019-05-29T14:12:52.769Z,20.00
2019-05-29T14:15:19.886Z,19.90
2019-05-29T14:17:46.895Z,20.00
2019-05-29T14:20:15.978Z,20.20
2019-05-29T14:22:43.175Z,20.10
2019-05-29T14:25:11.638Z,20.20
2019-05-29T14:27:38.788Z,20.10
2019-05-29T14:30:08.023Z,20.30
2019-05-29T14:32:35.142Z,20.50
2019-05-29T14:35:04.278Z,20.90
2019-05-29T14:37:31.190Z,20.80
2019-05-29T14:39:58.169Z,20.80
2019-05-29T14:42:25.217Z,20.90
2019-05-29T14:44:52.243Z,20.70
2019-05-29T14:47:19.263Z,20.60
2019-05-29T14:49:46.175Z,20.30
2019-05-29T14:52:14.323Z,20.10
2019-05-29T14:54:42.914Z,19.90
2019-05-29T14:57:22.648Z,19.70
2019-05-29T14:59:41.826Z,19.70
2019-05-29T15:02:18.974Z,20.00
2019-05-29T15:04:40.086Z,20.20
2019-05-29T15:07:08.210Z,20.40
2019-05-29T15:09:36.381Z,20.50
2019-05-29T15:12:05.900Z,20.90
2019-05-29T15:14:34.215Z,21.00
2019-05-29T15:17:02.563Z,20.60
2019-05-29T15:19:30.682Z,20.70
2019-05-29T15:21:59.002Z,20.60
2019-05-29T15:24:26.950Z,20.60
2019-05-29T15:26:55.021Z,20.50
2019-05-29T15:29:23.171Z,20.40
2019-05-29T15:31:51.447Z,20.30
2019-05-29T15:34:19.726Z,20.30
2019-05-29T15:36:47.962Z,20.60
2019-05-29T15:39:16.868Z,20.80
2019-05-29T15:41:45.175Z,21.00
2019-05-29T15:44:13.166Z,21.20
2019-05-29T15:46:41.203Z,21.40
2019-05-29T15:49:09.338Z,21.50
2019-05-29T15:51:37.418Z,21.60
2019-05-29T15:54:05.495Z,21.80
2019-05-29T15:56:33.923Z,21.30
2019-05-29T15:59:02.016Z,21.30
2019-05-29T16:01:30.168Z,21.30
2019-05-29T16:03:58.414Z,21.30
2019-05-29T16:06:26.353Z,21.10
2019-05-29T16:08:54.399Z,20.50
2019-05-29T16:11:25.492Z,20.30
2019-05-29T16:13:53.686Z,20.10
2019-05-29T16:16:21.841Z,20.10
2019-05-29T16:18:49.962Z,20.10
2019-05-29T16:21:18.841Z,20.20
2019-05-29T16:23:46.889Z,20.10
2019-05-29T16:26:15.131Z,20.10
2019-05-29T16:28:43.287Z,20.00
2019-05-29T16:31:12.509Z,20.20
2019-05-29T16:33:40.830Z,20.20
2019-05-29T16:36:08.745Z,20.30
2019-05-29T16:38:36.853Z,20.30
2019-05-29T16:41:04.984Z,19.80
2019-05-29T16:43:33.077Z,19.50
2019-05-29T16:46:01.197Z,19.40
2019-05-29T16:48:29.252Z,19.60
2019-05-29T16:50:57.276Z,19.50
2019-05-29T16:53:25.222Z,19.70
2019-05-29T16:55:54.311Z,19.70
2019-05-29T16:58:23.295Z,19.50
2019-05-29T17:00:51.338Z,19.60
2019-05-29T17:03:19.703Z,19.80
2019-05-29T17:05:47.907Z,19.70
2019-05-29T17:08:16.372Z,19.60
2019-05-29T17:10:44.286Z,19.50
2019-05-29T17:13:16.497Z,19.50
2019-05-29T17:15:51.028Z,19.60
2019-05-29T17:18:19.206Z,19.80
2019-05-29T17:20:47.643Z,19.80
2019-05-29T17:23:16.993Z,19.70
2019-05-29T17:25:45.378Z,19.70
2019-05-29T17:28:14.818Z,19.60
2019-05-29T17:30:43.429Z,19.50
2019-05-29T17:33:11.554Z,19.60
2019-05-29T17:35:39.813Z,19.60
2019-05-29T17:38:07.945Z,19.60
2019-05-29T17:40:36.157Z,19.50
2019-05-29T17:43:04.425Z,19.70
2019-05-29T17:45:32.549Z,19.50
2019-05-29T17:48:00.506Z,19.60
2019-05-29T17:50:28.721Z,19.70
2019-05-29T17:52:56.673Z,19.60
2019-05-29T17:55:25.342Z,19.60
2019-05-29T17:57:54.727Z,19.40
2019-05-29T18:00:24.866Z,19.40
2019-05-29T18:02:52.981Z,19.20
2019-05-29T18:05:22.664Z,19.30
2019-05-29T18:07:51.029Z,19.40
2019-05-29T18:10:20.920Z,19.40
2019-05-29T18:12:49.348Z,18.90
2019-05-29T18:15:17.833Z,18.90
2019-05-29T18:17:45.978Z,19.00
2019-05-29T18:20:15.232Z,19.10
2019-05-29T18:22:43.710Z,18.90
2019-05-29T18:25:12.241Z,18.70
2019-05-29T18:27:40.285Z,18.80
2019-05-29T18:30:09.054Z,18.80
2019-05-29T18:32:37.251Z,18.90
2019-05-29T18:35:06.315Z,19.00
2019-05-29T18:37:34.447Z,19.00
2019-05-29T18:40:07.785Z,18.80
2019-05-29T18:42:34.111Z,19.10
2019-05-29T18:45:02.761Z,18.80
2019-05-29T18:47:30.900Z,18.80
2019-05-29T18:49:58.947Z,18.70
2019-05-29T18:52:27.683Z,18.50
2019-05-29T18:54:56.002Z,18.40
2019-05-29T18:57:25.075Z,18.50
2019-05-29T18:59:53.549Z,18.50
2019-05-29T19:02:23.247Z,18.50
2019-05-29T19:04:51.480Z,18.40
2019-05-29T19:07:19.801Z,18.40
2019-05-29T19:09:48.082Z,18.30
2019-05-29T19:12:16.474Z,18.20
2019-05-29T19:14:44.847Z,18.20
2019-05-29T19:17:12.917Z,17.90
2019-05-29T19:19:40.875Z,17.80
2019-05-29T19:22:08.939Z,17.80
2019-05-29T19:24:37.242Z,17.90
2019-05-29T19:27:05.538Z,18.00
2019-05-29T19:29:34.103Z,18.00
2019-05-29T19:32:02.242Z,18.00
2019-05-29T19:34:31.597Z,17.90
2019-05-29T19:36:59.640Z,17.80
2019-05-29T19:39:28.333Z,17.70
2019-05-29T19:41:56.505Z,17.50
2019-05-29T19:44:26.175Z,17.40
2019-05-29T19:46:54.722Z,17.30
2019-05-29T19:49:23.022Z,17.40
2019-05-29T19:51:51.719Z,17.60
2019-05-29T19:54:20.375Z,17.60
2019-05-29T19:56:48.734Z,17.70
2019-05-29T19:59:17.129Z,17.70
2019-05-29T20:01:45.577Z,17.70
2019-05-29T20:04:13.998Z,17.70
2019-05-29T20:06:44.602Z,17.70
2019-05-29T20:09:11.784Z,17.60
2019-05-29T20:11:40.436Z,17.50
2019-05-29T20:14:09.060Z,17.50
2019-05-29T20:16:39.138Z,17.40
2019-05-29T20:19:07.919Z,17.30
2019-05-29T20:21:36.794Z,17.30
2019-05-29T20:24:05.386Z,17.20
2019-05-29T20:26:33.688Z,17.10
2019-05-29T20:29:01.979Z,17.10
2019-05-29T20:31:30.460Z,17.00
2019-05-29T20:33:58.847Z,17.10
2019-05-29T20:36:27.011Z,16.90
2019-05-29T20:38:55.787Z,17.00
2019-05-29T20:41:24.282Z,17.00
2019-05-29T20:43:52.410Z,17.00
2019-05-29T20:46:21.127Z,17.00
2019-05-29T20:48:49.561Z,16.90
2019-05-29T20:51:18.742Z,16.90
2019-05-29T20:53:46.904Z,16.90
2019-05-29T20:56:15.197Z,16.80
2019-05-29T20:58:43.657Z,16.80
2019-05-29T21:01:12.227Z,16.70
2019-05-29T21:03:40.971Z,16.80
2019-05-29T21:06:09.627Z,16.70
2019-05-29T21:08:38.968Z,16.60
2019-05-29T21:11:07.396Z,16.60
2019-05-29T21:13:35.833Z,16.60
2019-05-29T21:16:04.244Z,16.60
2019-05-29T21:18:33.694Z,16.50
2019-05-29T21:21:02.320Z,16.40
2019-05-29T21:23:30.746Z,16.40
2019-05-29T21:25:59.193Z,16.40
2019-05-29T21:28:39.817Z,16.30
2019-05-29T21:30:58.162Z,16.30
2019-05-29T21:33:26.468Z,16.30
2019-05-29T21:35:54.606Z,16.30
2019-05-29T21:38:23.265Z,16.40
2019-05-29T21:40:51.965Z,16.30
2019-05-29T21:43:20.752Z,16.30
2019-05-29T21:45:49.385Z,16.10
2019-05-29T21:48:17.333Z,16.20
2019-05-29T21:50:45.589Z,16.10
2019-05-29T21:53:13.548Z,16.10
2019-05-29T21:55:42.081Z,16.20
2019-05-29T21:58:10.348Z,16.10
2019-05-29T22:00:48.772Z,16.10
2019-05-29T22:03:17.295Z,16.10
2019-05-29T22:05:46.778Z,16.20
2019-05-29T22:08:16.101Z,16.10
2019-05-29T22:10:44.580Z,16.10
2019-05-29T22:13:12.853Z,16.10
2019-05-29T22:15:41.225Z,16.00
2019-05-29T22:18:09.834Z,16.10
2019-05-29T22:20:38.092Z,16.10
2019-05-29T22:23:06.493Z,16.10
2019-05-29T22:25:35.169Z,16.10
2019-05-29T22:28:03.621Z,16.10
2019-05-29T22:30:31.774Z,16.00
2019-05-29T22:33:00.149Z,16.00
2019-05-29T22:35:28.409Z,15.90
2019-05-29T22:37:57.684Z,15.90
2019-05-29T22:40:26.110Z,15.90
2019-05-29T22:42:55.591Z,15.80
2019-05-29T22:45:23.806Z,15.70
2019-05-29T22:47:53.732Z,15.60
2019-05-29T22:50:21.957Z,15.60
2019-05-29T22:52:50.183Z,15.60
2019-05-29T22:55:19.220Z,15.50
2019-05-29T22:57:47.736Z,15.60
2019-05-29T23:00:18.204Z,15.50
2019-05-29T23:02:46.137Z,15.50
2019-05-29T23:05:14.325Z,15.50
2019-05-29T23:07:42.419Z,15.40
2019-05-29T23:10:11.981Z,15.10
2019-05-29T23:12:40.609Z,15.20
2019-05-29T23:15:09.146Z,15.10
2019-05-29T23:17:37.426Z,15.00
2019-05-29T23:20:06.793Z,15.00
2019-05-29T23:22:34.917Z,15.20
2019-05-29T23:25:03.738Z,15.20
2019-05-29T23:27:31.875Z,15.10
2019-05-29T23:30:01.055Z,15.20
2019-05-29T23:32:29.579Z,15.20
2019-05-29T23:34:59.152Z,15.10
2019-05-29T23:37:27.441Z,15.10
2019-05-29T23:39:57.099Z,14.90
2019-05-29T23:42:26.293Z,14.80
2019-05-29T23:44:55.850Z,14.90
2019-05-29T23:47:24.433Z,14.90
2019-05-29T23:49:53.520Z,14.90
2019-05-29T23:52:21.735Z,14.90
2019-05-29T23:54:50.437Z,14.80
2019-05-29T23:57:18.873Z,14.80
2019-05-29T23:59:47.296Z,14.80
